createdAt,value
2018-09-14T00:01:56.818Z,17.28
2018-09-14T00:04:26.059Z,17.28
2018-09-14T00:06:55.421Z,17.25
2018-09-14T00:09:24.762Z,17.26
2018-09-14T00:11:54.062Z,17.28
2018-09-14T00:14:23.400Z,17.28
2018-09-14T00:16:52.854Z,17.30
2018-09-14T00:19:22.224Z,17.20
2018-09-14T00:21:51.688Z,17.14
2018-09-14T00:24:20.879Z,17.17
2018-09-14T00:26:51.248Z,17.01
2018-09-14T00:29:20.663Z,17.08
2018-09-14T00:31:50.077Z,17.13
2018-09-14T00:34:19.436Z,17.22
2018-09-14T00:36:48.726Z,17.25
2018-09-14T00:39:18.624Z,17.19
2018-09-14T00:41:48.499Z,17.21
2018-09-14T00:44:17.867Z,17.14
2018-09-14T00:46:47.156Z,17.06
2018-09-14T00:49:16.424Z,16.87
2018-09-14T00:51:45.816Z,16.95
2018-09-14T00:54:15.205Z,17.02
2018-09-14T00:56:44.468Z,16.91
2018-09-14T00:59:13.811Z,16.93
2018-09-14T01:01:43.247Z,16.66
2018-09-14T01:04:12.591Z,16.79
2018-09-14T01:06:42.040Z,16.95
2018-09-14T01:09:18.669Z,16.84
2018-09-14T01:11:48.475Z,16.87
2018-09-14T01:14:17.767Z,16.85
2018-09-14T01:16:46.983Z,16.80
2018-09-14T01:19:16.168Z,16.80
2018-09-14T01:21:45.523Z,16.82
2018-09-14T01:24:14.772Z,16.74
2018-09-14T01:26:44.162Z,16.75
2018-09-14T01:29:13.540Z,16.76
2018-09-14T01:31:42.835Z,16.79
2018-09-14T01:34:12.060Z,16.70
2018-09-14T01:36:41.564Z,16.71
2018-09-14T01:39:12.770Z,16.73
2018-09-14T01:41:42.104Z,16.70
2018-09-14T01:44:11.346Z,16.68
2018-09-14T01:46:40.692Z,16.68
2018-09-14T01:49:10.119Z,16.71
2018-09-14T01:51:39.464Z,16.78
2018-09-14T01:54:09.792Z,16.81
2018-09-14T01:56:39.089Z,16.65
2018-09-14T01:59:08.426Z,16.76
2018-09-14T02:01:37.753Z,16.72
2018-09-14T02:04:07.159Z,16.76
2018-09-14T02:06:36.692Z,16.74
2018-09-14T02:09:08.133Z,16.66
2018-09-14T02:11:37.652Z,16.65
2018-09-14T02:14:07.268Z,16.52
2018-09-14T02:16:36.669Z,16.44
2018-09-14T02:19:06.324Z,16.48
2018-09-14T02:21:35.550Z,16.67
2018-09-14T02:24:04.850Z,16.60
2018-09-14T02:26:34.348Z,16.62
2018-09-14T02:29:04.404Z,16.54
2018-09-14T02:31:33.725Z,16.58
2018-09-14T02:34:03.155Z,16.48
2018-09-14T02:36:32.742Z,16.47
2018-09-14T02:39:02.275Z,16.52
2018-09-14T02:41:31.706Z,16.51
2018-09-14T02:44:01.100Z,16.48
2018-09-14T02:46:30.330Z,16.37
2018-09-14T02:48:59.717Z,16.32
2018-09-14T02:51:29.128Z,16.41
2018-09-14T02:53:58.391Z,16.47
2018-09-14T02:56:27.684Z,16.50
2018-09-14T02:58:56.942Z,16.47
2018-09-14T03:01:26.320Z,16.64
2018-09-14T03:03:55.877Z,16.52
2018-09-14T03:06:25.349Z,16.44
2018-09-14T03:08:55.394Z,16.39
2018-09-14T03:11:24.686Z,16.34
2018-09-14T03:13:54.227Z,16.41
2018-09-14T03:16:23.496Z,16.41
2018-09-14T03:18:52.764Z,16.37
2018-09-14T03:21:22.129Z,16.50
2018-09-14T03:23:51.326Z,16.49
2018-09-14T03:26:20.775Z,16.43
2018-09-14T03:28:50.231Z,16.44
2018-09-14T03:31:19.621Z,16.42
2018-09-14T03:33:48.962Z,16.48
2018-09-14T03:36:18.313Z,16.48
2018-09-14T03:38:47.572Z,16.46
2018-09-14T03:41:16.870Z,16.35
2018-09-14T03:43:46.324Z,16.40
2018-09-14T03:46:15.698Z,16.41
2018-09-14T03:48:45.117Z,16.38
2018-09-14T03:51:14.535Z,16.40
2018-09-14T03:53:43.959Z,16.47
2018-09-14T03:56:13.413Z,16.43
2018-09-14T03:58:42.764Z,16.53
2018-09-14T04:01:12.187Z,16.45
2018-09-14T04:03:41.949Z,16.45
2018-09-14T04:06:11.521Z,16.34
2018-09-14T04:08:43.079Z,16.37
2018-09-14T04:11:12.675Z,16.31
2018-09-14T04:13:42.657Z,16.30
2018-09-14T04:16:12.569Z,16.33
2018-09-14T04:18:41.574Z,16.33
2018-09-14T04:21:11.042Z,16.35
2018-09-14T04:23:40.378Z,16.33
2018-09-14T04:26:09.977Z,16.38
2018-09-14T04:28:39.356Z,16.37
2018-09-14T04:31:08.703Z,16.35
2018-09-14T04:33:37.817Z,16.37
2018-09-14T04:36:07.063Z,16.38
2018-09-14T04:38:36.530Z,16.38
2018-09-14T04:41:06.109Z,16.36
2018-09-14T04:43:35.408Z,16.39
2018-09-14T04:46:04.939Z,16.39
2018-09-14T04:48:34.362Z,16.32
2018-09-14T04:51:04.169Z,16.14
2018-09-14T04:53:33.560Z,16.26
2018-09-14T04:56:02.999Z,16.30
2018-09-14T04:58:32.312Z,16.27
2018-09-14T05:01:01.600Z,16.35
2018-09-14T05:03:31.059Z,16.43
2018-09-14T05:06:00.256Z,16.47
2018-09-14T05:08:29.717Z,16.43
2018-09-14T05:10:59.177Z,16.47
2018-09-14T05:13:29.029Z,16.41
2018-09-14T05:15:58.359Z,16.40
2018-09-14T05:18:27.692Z,16.52
2018-09-14T05:20:57.220Z,16.57
2018-09-14T05:23:26.671Z,16.58
2018-09-14T05:25:56.130Z,16.65
2018-09-14T05:28:25.473Z,16.65
2018-09-14T05:30:54.977Z,16.67
2018-09-14T05:33:24.347Z,16.70
2018-09-14T05:35:54.347Z,16.72
2018-09-14T05:38:23.766Z,16.76
2018-09-14T05:40:52.990Z,16.84
2018-09-14T05:43:22.249Z,16.82
2018-09-14T05:45:51.625Z,16.86
2018-09-14T05:48:20.926Z,16.84
2018-09-14T05:50:50.150Z,16.90
2018-09-14T05:53:19.518Z,16.85
2018-09-14T05:55:48.816Z,16.72
2018-09-14T05:58:18.164Z,16.67
2018-09-14T06:00:47.663Z,16.80
2018-09-14T06:03:17.227Z,16.75
2018-09-14T06:05:46.711Z,16.84
2018-09-14T06:08:16.202Z,16.96
2018-09-14T06:10:45.655Z,16.94
2018-09-14T06:13:15.127Z,16.89
2018-09-14T06:15:44.497Z,16.85
2018-09-14T06:18:13.994Z,16.99
2018-09-14T06:20:43.495Z,16.94
2018-09-14T06:23:13.404Z,16.91
2018-09-14T06:25:43.121Z,16.94
2018-09-14T06:28:12.865Z,17.04
2018-09-14T06:30:42.512Z,17.04
2018-09-14T06:33:12.042Z,17.10
2018-09-14T06:35:41.564Z,17.24
2018-09-14T06:38:11.062Z,17.30
2018-09-14T06:40:40.416Z,17.37
2018-09-14T06:43:09.973Z,17.45
2018-09-14T06:45:39.367Z,17.50
2018-09-14T06:48:09.992Z,17.34
2018-09-14T06:50:39.569Z,17.33
2018-09-14T06:53:09.622Z,17.48
2018-09-14T06:55:39.650Z,17.53
2018-09-14T06:58:08.926Z,17.44
2018-09-14T07:00:38.211Z,17.42
2018-09-14T07:03:07.537Z,17.34
2018-09-14T07:05:36.802Z,17.54
2018-09-14T07:08:06.152Z,17.53
2018-09-14T07:10:35.519Z,17.47
2018-09-14T07:13:05.016Z,17.65
2018-09-14T07:15:34.463Z,17.67
2018-09-14T07:18:05.082Z,17.62
2018-09-14T07:20:34.557Z,17.63
2018-09-14T07:23:03.939Z,17.59
2018-09-14T07:25:34.176Z,17.73
2018-09-14T07:28:03.795Z,17.90
2018-09-14T07:30:33.526Z,17.89
2018-09-14T07:33:02.938Z,17.89
2018-09-14T07:35:32.329Z,18.00
2018-09-14T07:38:01.814Z,17.88
2018-09-14T07:40:32.256Z,17.81
2018-09-14T07:43:01.709Z,17.81
2018-09-14T07:45:31.480Z,17.82
2018-09-14T07:48:00.962Z,17.81
2018-09-14T07:50:30.406Z,17.81
2018-09-14T07:53:00.012Z,17.86
2018-09-14T07:55:30.127Z,17.86
2018-09-14T07:57:59.720Z,17.98
2018-09-14T08:00:29.460Z,18.02
2018-09-14T08:02:59.045Z,18.00
2018-09-14T08:05:28.825Z,18.04
2018-09-14T08:07:58.485Z,18.01
2018-09-14T08:10:27.845Z,17.97
2018-09-14T08:12:57.221Z,17.99
2018-09-14T08:15:26.688Z,18.04
2018-09-14T08:17:55.965Z,18.12
2018-09-14T08:20:25.221Z,18.18
2018-09-14T08:22:54.509Z,18.25
2018-09-14T08:25:24.553Z,18.32
2018-09-14T08:27:54.024Z,18.36
2018-09-14T08:30:23.719Z,18.46
2018-09-14T08:32:53.834Z,18.38
2018-09-14T08:35:23.195Z,18.53
2018-09-14T08:37:52.854Z,18.75
2018-09-14T08:40:22.211Z,18.75
2018-09-14T08:42:51.710Z,18.60
2018-09-14T08:45:21.134Z,18.78
2018-09-14T08:47:50.485Z,18.89
2018-09-14T08:50:19.776Z,19.12
2018-09-14T08:52:49.277Z,19.27
2018-09-14T08:55:18.759Z,19.26
2018-09-14T08:57:48.011Z,19.26
2018-09-14T09:00:22.939Z,19.48
2018-09-14T09:02:53.375Z,19.63
2018-09-14T09:05:23.438Z,19.70
2018-09-14T09:07:52.935Z,19.46
2018-09-14T09:10:22.399Z,19.56
2018-09-14T09:12:52.036Z,19.70
2018-09-14T09:15:21.453Z,19.73
2018-09-14T09:17:51.089Z,19.57
2018-09-14T09:20:20.800Z,19.57
2018-09-14T09:22:50.472Z,19.28
2018-09-14T09:25:19.898Z,18.92
2018-09-14T09:27:49.376Z,19.00
2018-09-14T09:30:18.861Z,19.19
2018-09-14T09:32:48.322Z,19.15
2018-09-14T09:35:18.402Z,19.09
2018-09-14T09:37:49.119Z,19.08
2018-09-14T09:40:18.454Z,19.26
2018-09-14T09:42:47.688Z,19.34
2018-09-14T09:45:17.066Z,19.46
2018-09-14T09:47:46.392Z,19.56
2018-09-14T09:50:15.711Z,19.55
2018-09-14T09:52:45.088Z,19.82
2018-09-14T09:55:14.474Z,19.98
2018-09-14T09:57:44.358Z,20.50
2018-09-14T10:00:19.468Z,20.11
2018-09-14T10:02:53.927Z,20.02
2018-09-14T10:05:28.372Z,19.96
2018-09-14T10:07:57.845Z,19.85
2018-09-14T10:10:27.251Z,19.64
2018-09-14T10:12:56.698Z,19.61
2018-09-14T10:15:25.962Z,19.55
2018-09-14T10:17:55.272Z,19.27
2018-09-14T10:20:24.811Z,19.39
2018-09-14T10:22:54.516Z,19.19
2018-09-14T10:25:25.181Z,19.14
2018-09-14T10:27:54.718Z,19.25
2018-09-14T10:30:24.122Z,19.50
2018-09-14T10:32:53.768Z,19.53
2018-09-14T10:35:23.480Z,19.66
2018-09-14T10:37:53.981Z,19.81
2018-09-14T10:40:24.637Z,19.89
2018-09-14T10:42:55.184Z,20.07
2018-09-14T10:45:25.002Z,20.17
2018-09-14T10:47:54.822Z,20.18
2018-09-14T10:50:24.170Z,20.09
2018-09-14T10:52:53.500Z,20.14
2018-09-14T10:55:22.781Z,19.98
2018-09-14T10:57:52.607Z,19.92
2018-09-14T11:00:24.013Z,19.76
2018-09-14T11:02:53.497Z,19.83
2018-09-14T11:05:22.883Z,19.76
2018-09-14T11:07:52.415Z,19.51
2018-09-14T11:10:22.194Z,19.55
2018-09-14T11:12:51.753Z,19.59
2018-09-14T11:15:21.368Z,19.60
2018-09-14T11:17:50.650Z,19.66
2018-09-14T11:20:20.026Z,19.70
2018-09-14T11:22:49.775Z,19.73
2018-09-14T11:25:19.521Z,19.61
2018-09-14T11:27:48.908Z,19.44
2018-09-14T11:30:18.811Z,19.32
2018-09-14T11:32:49.826Z,19.34
2018-09-14T11:35:19.435Z,19.22
2018-09-14T11:37:49.160Z,19.07
2018-09-14T11:40:18.534Z,19.00
2018-09-14T11:42:48.943Z,19.16
2018-09-14T11:45:18.396Z,19.13
2018-09-14T11:47:47.682Z,19.07
2018-09-14T11:50:17.131Z,19.15
2018-09-14T11:52:47.800Z,19.19
2018-09-14T11:55:17.094Z,19.19
2018-09-14T11:57:47.926Z,19.21
2018-09-14T12:00:17.873Z,19.15
2018-09-14T12:02:47.855Z,18.93
2018-09-14T12:05:17.369Z,18.88
2018-09-14T12:07:47.388Z,18.88
2018-09-14T12:10:16.721Z,18.91
2018-09-14T12:12:46.281Z,18.96
2018-09-14T12:15:15.852Z,18.70
2018-09-14T12:17:45.972Z,18.58
2018-09-14T12:20:15.973Z,18.75
2018-09-14T12:22:46.110Z,18.69
2018-09-14T12:25:15.917Z,18.74
2018-09-14T12:27:45.370Z,18.66
2018-09-14T12:30:14.878Z,18.53
2018-09-14T12:32:44.452Z,18.66
2018-09-14T12:35:15.212Z,18.40
2018-09-14T12:37:45.157Z,18.37
2018-09-14T12:40:14.714Z,18.23
2018-09-14T12:42:44.666Z,18.15
2018-09-14T12:45:14.240Z,18.17
2018-09-14T12:47:43.684Z,18.30
2018-09-14T12:50:12.786Z,18.36
2018-09-14T12:52:43.221Z,18.31
2018-09-14T12:55:12.768Z,18.42
2018-09-14T12:57:42.120Z,18.56
2018-09-14T13:00:12.625Z,18.37
2018-09-14T13:02:43.469Z,18.28
2018-09-14T13:05:13.107Z,18.18
2018-09-14T13:07:43.845Z,18.11
2018-09-14T13:10:13.345Z,18.04
2018-09-14T13:12:42.755Z,18.05
2018-09-14T13:15:13.061Z,17.95
2018-09-14T13:17:42.528Z,18.01
2018-09-14T13:20:12.026Z,17.96
2018-09-14T13:22:41.377Z,17.93
2018-09-14T13:25:10.913Z,17.89
2018-09-14T13:27:40.372Z,17.96
2018-09-14T13:30:10.660Z,17.93
2018-09-14T13:32:42.775Z,17.94
2018-09-14T13:35:12.545Z,18.10
2018-09-14T13:37:41.950Z,18.06
2018-09-14T13:40:12.165Z,18.05
2018-09-14T13:42:41.521Z,18.08
2018-09-14T13:45:10.736Z,17.95
2018-09-14T13:47:40.156Z,17.94
2018-09-14T13:50:09.597Z,17.76
2018-09-14T13:52:39.074Z,17.77
2018-09-14T13:55:08.404Z,17.91
2018-09-14T13:57:38.000Z,17.87
2018-09-14T14:00:07.908Z,17.83
2018-09-14T14:02:37.305Z,17.49
2018-09-14T14:05:06.664Z,17.48
2018-09-14T14:07:35.757Z,17.40
2018-09-14T14:10:05.040Z,17.48
2018-09-14T14:12:34.064Z,17.35
2018-09-14T14:15:03.277Z,17.47
2018-09-14T14:17:32.356Z,17.62
2018-09-14T14:20:01.490Z,17.54
2018-09-14T14:22:31.087Z,17.72
2018-09-14T14:25:00.263Z,17.80
2018-09-14T14:27:29.326Z,17.84
2018-09-14T14:29:58.418Z,17.88
2018-09-14T14:32:27.544Z,18.02
2018-09-14T14:34:56.955Z,17.98
2018-09-14T14:37:26.495Z,17.95
2018-09-14T14:39:56.157Z,17.91
2018-09-14T14:42:25.532Z,17.90
2018-09-14T14:44:56.230Z,17.92
2018-09-14T14:47:25.724Z,17.90
2018-09-14T14:49:55.068Z,18.02
2018-09-14T14:52:24.456Z,18.06
2018-09-14T14:54:53.487Z,18.05
2018-09-14T14:57:22.645Z,18.02
2018-09-14T14:59:51.723Z,17.92
2018-09-14T15:02:20.794Z,17.71
2018-09-14T15:04:50.617Z,17.60
2018-09-14T15:07:20.022Z,17.56
2018-09-14T15:09:49.182Z,17.67
2018-09-14T15:12:18.309Z,17.73
2018-09-14T15:14:50.516Z,17.66
2018-09-14T15:17:20.199Z,17.67
2018-09-14T15:19:49.496Z,17.64
2018-09-14T15:22:18.583Z,17.51
2018-09-14T15:24:47.785Z,17.63
2018-09-14T15:27:16.879Z,17.62
2018-09-14T15:29:46.211Z,17.66
2018-09-14T15:32:15.277Z,17.54
2018-09-14T15:34:44.307Z,17.64
2018-09-14T15:37:13.385Z,17.70
2018-09-14T15:39:42.402Z,17.69
2018-09-14T15:42:11.523Z,17.80
2018-09-14T15:44:40.641Z,17.90
2018-09-14T15:47:09.738Z,17.96
2018-09-14T15:49:38.872Z,17.97
2018-09-14T15:52:07.929Z,17.96
2018-09-14T15:54:37.005Z,17.97
2018-09-14T15:57:06.105Z,17.94
2018-09-14T15:59:35.269Z,17.94
2018-09-14T16:02:04.283Z,17.92
2018-09-14T16:04:33.332Z,18.00
2018-09-14T16:07:02.348Z,17.98
2018-09-14T16:09:31.344Z,18.00
2018-09-14T16:12:00.450Z,18.06
2018-09-14T16:14:29.463Z,18.01
2018-09-14T16:16:58.543Z,18.06
2018-09-14T16:19:27.776Z,18.05
2018-09-14T16:21:56.786Z,18.06
2018-09-14T16:24:27.641Z,18.00
2018-09-14T16:26:56.927Z,18.05
2018-09-14T16:29:25.962Z,17.96
2018-09-14T16:31:55.166Z,17.92
2018-09-14T16:34:24.233Z,17.90
2018-09-14T16:36:53.232Z,17.86
2018-09-14T16:39:22.349Z,17.84
2018-09-14T16:41:51.379Z,17.76
2018-09-14T16:44:20.443Z,17.61
2018-09-14T16:46:49.612Z,17.70
2018-09-14T16:49:18.655Z,17.58
2018-09-14T16:51:48.213Z,17.56
2018-09-14T16:54:17.249Z,17.64
2018-09-14T16:56:46.382Z,17.57
2018-09-14T16:59:15.398Z,17.52
2018-09-14T17:01:44.457Z,17.42
2018-09-14T17:04:13.556Z,17.37
2018-09-14T17:06:42.668Z,17.44
2018-09-14T17:09:12.317Z,17.40
2018-09-14T17:11:41.502Z,17.39
2018-09-14T17:14:10.669Z,17.38
2018-09-14T17:16:39.806Z,17.37
2018-09-14T17:19:09.775Z,17.37
2018-09-14T17:21:39.033Z,17.37
2018-09-14T17:24:08.022Z,17.31
2018-09-14T17:26:37.120Z,17.23
2018-09-14T17:29:06.194Z,17.16
2018-09-14T17:31:35.314Z,17.20
2018-09-14T17:34:04.340Z,17.23
2018-09-14T17:36:34.301Z,17.20
2018-09-14T17:39:03.411Z,17.13
2018-09-14T17:41:32.503Z,17.15
2018-09-14T17:44:02.143Z,17.15
2018-09-14T17:46:33.290Z,17.16
2018-09-14T17:49:03.851Z,17.13
2018-09-14T17:51:32.906Z,17.13
2018-09-14T17:54:01.922Z,17.11
2018-09-14T17:56:31.056Z,17.11
2018-09-14T17:59:00.715Z,17.08
2018-09-14T18:01:30.649Z,17.06
2018-09-14T18:03:59.832Z,17.03
2018-09-14T18:06:28.974Z,17.04
2018-09-14T18:08:58.322Z,17.02
2018-09-14T18:11:27.503Z,16.99
2018-09-14T18:13:57.414Z,16.97
2018-09-14T18:16:27.390Z,17.08
2018-09-14T18:18:56.721Z,17.02
2018-09-14T18:21:25.995Z,16.94
2018-09-14T18:23:56.611Z,16.93
2018-09-14T18:26:25.789Z,16.91
2018-09-14T18:28:56.194Z,16.83
2018-09-14T18:31:25.378Z,16.79
2018-09-14T18:33:56.270Z,16.73
2018-09-14T18:36:28.267Z,16.67
2018-09-14T18:38:58.592Z,16.67
2018-09-14T18:41:28.237Z,16.50
2018-09-14T18:43:58.672Z,16.49
2018-09-14T18:46:29.101Z,16.51
2018-09-14T18:49:00.640Z,16.66
2018-09-14T18:51:33.426Z,16.53
2018-09-14T18:54:02.786Z,16.50
2018-09-14T18:56:31.971Z,16.54
2018-09-14T18:59:03.017Z,16.49
2018-09-14T19:01:32.116Z,16.50
2018-09-14T19:04:01.345Z,16.50
2018-09-14T19:06:31.760Z,16.48
2018-09-14T19:09:01.046Z,16.46
2018-09-14T19:11:31.288Z,16.50
2018-09-14T19:14:00.550Z,16.41
2018-09-14T19:16:29.748Z,16.34
2018-09-14T19:18:58.880Z,16.33
2018-09-14T19:21:28.140Z,16.26
2018-09-14T19:23:58.581Z,16.28
2018-09-14T19:26:28.071Z,16.24
2018-09-14T19:28:57.530Z,16.19
2018-09-14T19:31:30.977Z,16.07
2018-09-14T19:34:00.255Z,15.88
2018-09-14T19:36:31.655Z,16.01
2018-09-14T19:39:01.031Z,16.09
2018-09-14T19:41:31.979Z,16.15
2018-09-14T19:44:01.260Z,16.17
2018-09-14T19:46:30.787Z,16.09
2018-09-14T19:49:02.002Z,16.15
2018-09-14T19:51:31.224Z,16.02
2018-09-14T19:54:01.230Z,16.18
2018-09-14T19:56:30.460Z,15.98
2018-09-14T19:59:00.319Z,15.96
2018-09-14T20:01:29.585Z,15.89
2018-09-14T20:03:58.872Z,15.89
2018-09-14T20:06:28.259Z,15.71
2018-09-14T20:08:57.353Z,15.62
2018-09-14T20:11:28.927Z,15.67
2018-09-14T20:13:58.160Z,15.63
2018-09-14T20:16:27.867Z,15.57
2018-09-14T20:18:58.610Z,15.60
2018-09-14T20:21:28.700Z,15.51
2018-09-14T20:23:58.553Z,15.35
2018-09-14T20:26:27.857Z,15.35
2018-09-14T20:28:58.011Z,15.35
2018-09-14T20:31:27.526Z,15.36
2018-09-14T20:33:58.517Z,15.37
2018-09-14T20:36:27.685Z,15.47
2018-09-14T20:38:58.397Z,15.64
2018-09-14T20:41:27.697Z,15.55
2018-09-14T20:43:56.803Z,15.45
2018-09-14T20:46:28.228Z,15.26
2018-09-14T20:48:57.961Z,15.09
2018-09-14T20:51:27.213Z,15.15
2018-09-14T20:53:56.453Z,15.23
2018-09-14T20:56:26.940Z,15.28
2018-09-14T20:58:56.452Z,15.21
2018-09-14T21:01:27.053Z,15.19
2018-09-14T21:03:56.416Z,15.21
2018-09-14T21:06:26.031Z,15.23
2018-09-14T21:08:55.544Z,15.21
2018-09-14T21:11:24.637Z,15.19
2018-09-14T21:13:53.759Z,15.01
2018-09-14T21:16:22.807Z,14.88
2018-09-14T21:18:52.190Z,14.84
2018-09-14T21:21:21.586Z,14.94
2018-09-14T21:23:50.656Z,14.89
2018-09-14T21:26:19.985Z,14.98
2018-09-14T21:28:49.204Z,14.85
2018-09-14T21:31:18.284Z,14.86
2018-09-14T21:33:47.841Z,14.88
2018-09-14T21:36:18.051Z,14.80
2018-09-14T21:38:47.050Z,14.82
2018-09-14T21:41:16.162Z,14.88
2018-09-14T21:43:45.212Z,14.90
2018-09-14T21:46:14.224Z,14.82
2018-09-14T21:48:44.108Z,14.84
2018-09-14T21:51:13.204Z,15.01
2018-09-14T21:53:43.427Z,15.08
2018-09-14T21:56:13.071Z,15.10
2018-09-14T21:58:42.195Z,15.16
2018-09-14T22:01:14.566Z,15.18
2018-09-14T22:03:45.496Z,15.12
2018-09-14T22:06:15.121Z,15.06
2018-09-14T22:08:44.619Z,15.09
2018-09-14T22:11:13.998Z,15.06
2018-09-14T22:13:45.115Z,15.10
2018-09-14T22:16:14.440Z,15.16
2018-09-14T22:18:43.827Z,15.19
2018-09-14T22:21:13.793Z,15.21
2018-09-14T22:23:42.962Z,15.17
2018-09-14T22:26:12.037Z,15.20
2018-09-14T22:28:41.706Z,15.27
2018-09-14T22:31:10.766Z,15.25
2018-09-14T22:33:40.138Z,15.20
2018-09-14T22:36:09.242Z,15.21
2018-09-14T22:38:38.560Z,15.24
2018-09-14T22:41:08.079Z,15.15
2018-09-14T22:43:38.640Z,15.18
2018-09-14T22:46:07.714Z,15.15
2018-09-14T22:48:37.021Z,15.20
2018-09-14T22:51:06.977Z,15.22
2018-09-14T22:53:36.426Z,15.27
2018-09-14T22:56:05.591Z,15.20
2018-09-14T22:58:34.634Z,15.28
2018-09-14T23:01:08.662Z,15.32
2018-09-14T23:03:37.741Z,15.23
2018-09-14T23:06:06.701Z,15.34
2018-09-14T23:08:35.667Z,15.26
2018-09-14T23:11:04.884Z,15.38
2018-09-14T23:13:34.016Z,15.38
2018-09-14T23:16:03.956Z,15.33
2018-09-14T23:18:33.028Z,15.33
2018-09-14T23:21:02.520Z,15.39
2018-09-14T23:23:31.972Z,15.35
2018-09-14T23:26:17.617Z,15.33
2018-09-14T23:28:46.767Z,15.34
2018-09-14T23:31:15.728Z,15.36
2018-09-14T23:33:44.842Z,15.36
2018-09-14T23:36:13.865Z,15.39
2018-09-14T23:38:42.935Z,15.40
2018-09-14T23:41:11.905Z,15.37
2018-09-14T23:43:40.872Z,15.38
2018-09-14T23:46:09.958Z,15.34
2018-09-14T23:48:38.919Z,15.38
2018-09-14T23:51:07.973Z,15.36
2018-09-14T23:53:37.017Z,15.38
2018-09-14T23:56:06.303Z,15.33
2018-09-14T23:58:35.734Z,15.36
